Mine Run, Virginia
Current Conditions -  °F | °C
As of 3:35 PM on Friday 28 Nov 2014 (Local Time) from KCJR Reporting Station
Scattered Clouds Scattered Clouds  
Wind Chill: 32°   Ceiling: Unl
Heat Index: 37°   Visibility: 10mi
Dew Point: 18°   Wind: 7mph
Humidity: 45%   Direction: 290°WNW
Pressure: 30.28"   Gusts: NA
Location:  38.33°N, 77.77°W
Report Text: KCJR 282035Z AUTO 29006KT 10SM SCT110 03/M08 A3028 RMK AO2
Loading
Personal Weather Stations






























Interactive Weather Map New forecast layout! Learn more

10-Day Weather Forecast

Advertisements
Track Severe Weather on mobile